Pepinster, Belgium
Current Conditions -  °F | °C
As of 3:50 PM on Tuesday 21 Oct 2014 (Local Time) from EBLG Reporting Station
Rain Showers Rain Showers  
Wind Chill: 52°   Ceiling: 2000
Heat Index: 52°   Visibility: 6mi
Dew Point: 48°   Wind: 21mph
Humidity: 88%   Direction: 260°W
Pressure: 29.59"   Gusts: 33mph
Location:  50.57°N, 5.8°E
Report Text: EBLG 211350Z 26018G29KT 9999 SHRA FEW011 BKN020 11/09 Q1002 BECMG 27020G35KT TEMPO 3000 SHRA BKN010
Loading
Personal Weather Stations






























Interactive Weather Map
Tropical Storm Tracking
New forecast layout! Learn more

10-Day Weather Forecast

Advertisements
Track Severe Weather on mobile